Time;durP1;ratioP1;P1;durP2;ratioP2;P2;SDS_P1;SDS_P2;PMS_P1;PMS_P2;Temp;Humidity;BMP_temperature;BMP_pressure;BME280_temperature;BME280_humidity;BME280_pressure;Samples;Min_cycle;Max_cycle;Signal;HPM_P1;HPM_P2
2022/03/25 00:01:39;;;;;;;65.10;41.83;;;;;;;;;;5303650;28;20059;-68
2022/03/25 00:04:10;;;;;;;74.05;41.85;;;;;;;;;;5304586;28;20027;-68
2022/03/25 00:06:41;;;;;;;67.76;42.64;;;;;;;;;;5304385;28;20341;-69
2022/03/25 00:09:12;;;;;;;69.84;43.72;;;;;;;;;;5303454;28;20024;-68
2022/03/25 00:11:43;;;;;;;71.52;43.04;;;;;;;;;;5303254;28;20016;-68
2022/03/25 00:14:15;;;;;;;67.53;41.58;;;;;;;;;;5304215;28;20040;-69
2022/03/25 00:16:46;;;;;;;61.95;42.28;;;;;;;;;;5303077;28;20266;-69
2022/03/25 00:19:17;;;;;;;62.33;41.03;;;;;;;;;;5304419;28;20031;-69
2022/03/25 00:21:48;;;;;;;69.85;42.17;;;;;;;;;;5303578;28;20339;-69
2022/03/25 00:24:20;;;;;;;69.03;41.40;;;;;;;;;;5303476;28;20435;-69
2022/03/25 00:26:51;;;;;;;70.43;43.22;;;;;;;;;;5303712;28;20081;-70
2022/03/25 00:29:22;;;;;;;68.60;42.30;;;;;;;;;;5303545;28;20043;-69
2022/03/25 00:31:53;;;;;;;70.00;41.78;;;;;;;;;;5303543;28;20278;-70
2022/03/25 00:34:24;;;;;;;63.00;41.20;;;;;;;;;;5304137;28;20356;-69
2022/03/25 00:36:55;;;;;;;68.36;43.04;;;;;;;;;;5302366;28;20273;-70
2022/03/25 00:39:27;;;;;;;68.88;42.92;;;;;;;;;;5303837;28;20016;-70
2022/03/25 00:41:58;;;;;;;71.10;42.88;;;;;;;;;;5303531;28;20744;-70
2022/03/25 00:44:29;;;;;;;71.82;42.60;;;;;;;;;;5303003;28;20077;-70
2022/03/25 00:47:02;;;;;;;66.24;41.50;;;;;;;;;;5303595;28;20024;-69
2022/03/25 00:49:33;;;;;;;67.13;41.03;;;;;;;;;;5303221;28;20398;-70
2022/03/25 00:52:04;;;;;;;67.10;41.33;;;;;;;;;;5302795;28;20020;-69
2022/03/25 00:54:36;;;;;;;71.60;40.72;;;;;;;;;;5303618;28;20027;-69
2022/03/25 00:57:07;;;;;;;67.22;40.63;;;;;;;;;;5303506;28;20382;-69
2022/03/25 00:59:38;;;;;;;66.60;39.50;;;;;;;;;;5302466;28;20089;-70
2022/03/25 01:02:09;;;;;;;71.06;41.44;;;;;;;;;;5303264;28;20051;-69
2022/03/25 01:04:40;;;;;;;66.13;41.17;;;;;;;;;;5302698;28;20023;-70
2022/03/25 01:07:12;;;;;;;69.02;42.06;;;;;;;;;;5303022;28;20281;-69
2022/03/25 01:09:43;;;;;;;72.43;42.10;;;;;;;;;;5302771;28;20114;-69
2022/03/25 01:12:14;;;;;;;68.85;41.42;;;;;;;;;;5302153;28;20540;-69
2022/03/25 01:14:46;;;;;;;63.70;40.60;;;;;;;;;;5302344;28;20479;-70
2022/03/25 01:17:17;;;;;;;71.75;40.58;;;;;;;;;;5303462;28;20486;-70
2022/03/25 01:19:48;;;;;;;67.30;40.15;;;;;;;;;;5301719;28;20399;-70
2022/03/25 01:22:20;;;;;;;66.75;40.90;;;;;;;;;;5303195;28;20121;-69
2022/03/25 01:24:51;;;;;;;65.78;42.08;;;;;;;;;;5302275;28;20026;-69
2022/03/25 01:27:22;;;;;;;65.18;39.42;;;;;;;;;;5302405;28;20300;-71
2022/03/25 01:29:53;;;;;;;66.15;39.15;;;;;;;;;;5302345;28;20036;-70
2022/03/25 01:32:24;;;;;;;68.25;39.50;;;;;;;;;;5302085;28;20019;-69
2022/03/25 01:34:56;;;;;;;65.36;39.02;;;;;;;;;;5302151;28;20164;-70
2022/03/25 01:37:29;;;;;;;63.03;38.72;;;;;;;;;;5302743;28;20019;-68
2022/03/25 01:40:00;;;;;;;67.00;38.63;;;;;;;;;;5301915;28;20020;-68
2022/03/25 01:42:32;;;;;;;66.47;38.97;;;;;;;;;;5302416;28;20035;-69
2022/03/25 01:45:04;;;;;;;61.65;38.08;;;;;;;;;;5302435;28;20151;-68
2022/03/25 01:47:35;;;;;;;58.20;38.08;;;;;;;;;;5301251;28;20053;-69
2022/03/25 01:50:16;;;;;;;64.20;37.35;;;;;;;;;;5302321;28;20164;-68
2022/03/25 01:52:49;;;;;;;63.17;38.15;;;;;;;;;;5302006;28;20122;-68
2022/03/25 01:55:24;;;;;;;61.10;36.50;;;;;;;;;;5301677;28;20035;-69
2022/03/25 01:57:57;;;;;;;62.45;36.83;;;;;;;;;;5301627;28;20415;-69
2022/03/25 02:00:29;;;;;;;61.45;36.15;;;;;;;;;;5302202;28;20027;-69
2022/03/25 02:03:00;;;;;;;58.58;35.63;;;;;;;;;;5301393;28;20479;-70
2022/03/25 02:05:31;;;;;;;66.70;36.08;;;;;;;;;;5301882;28;20019;-69
2022/03/25 02:08:03;;;;;;;54.95;34.22;;;;;;;;;;5300891;28;20027;-70
2022/03/25 02:10:34;;;;;;;61.38;34.20;;;;;;;;;;5301627;28;20459;-69
2022/03/25 02:13:05;;;;;;;65.16;34.82;;;;;;;;;;5301992;28;20027;-70
2022/03/25 02:15:38;;;;;;;54.88;33.97;;;;;;;;;;5300885;28;20032;-69
2022/03/25 02:18:10;;;;;;;61.55;34.17;;;;;;;;;;5301775;28;20069;-69
2022/03/25 02:20:42;;;;;;;56.55;33.33;;;;;;;;;;5301778;28;20052;-69
2022/03/25 02:23:13;;;;;;;58.33;34.53;;;;;;;;;;5300534;28;20058;-69
2022/03/25 02:25:47;;;;;;;52.10;32.80;;;;;;;;;;5301156;28;20454;-69
2022/03/25 02:28:19;;;;;;;51.90;31.60;;;;;;;;;;5301742;28;20343;-68
2022/03/25 02:30:51;;;;;;;50.78;31.95;;;;;;;;;;5300223;28;20048;-69
2022/03/25 02:33:22;;;;;;;48.38;31.17;;;;;;;;;;5301651;28;20028;-69
2022/03/25 02:35:53;;;;;;;50.88;29.52;;;;;;;;;;5306162;28;20332;-69
2022/03/25 02:38:25;;;;;;;53.58;29.95;;;;;;;;;;5308772;28;20073;-69
2022/03/25 02:40:56;;;;;;;53.63;30.10;;;;;;;;;;5308254;28;20012;-69
2022/03/25 02:43:27;;;;;;;52.04;30.00;;;;;;;;;;5307732;28;20020;-69
2022/03/25 02:45:58;;;;;;;50.45;29.83;;;;;;;;;;5308121;28;20024;-69
2022/03/25 02:48:29;;;;;;;47.64;29.26;;;;;;;;;;5308463;28;20085;-69
2022/03/25 02:51:01;;;;;;;48.47;29.25;;;;;;;;;;5307779;28;20020;-69
2022/03/25 02:53:32;;;;;;;48.25;28.65;;;;;;;;;;5308254;28;20070;-69
2022/03/25 02:56:03;;;;;;;46.78;28.45;;;;;;;;;;5308462;28;20490;-68
2022/03/25 02:58:35;;;;;;;43.83;27.27;;;;;;;;;;5307500;28;20027;-69
2022/03/25 03:01:06;;;;;;;54.80;29.02;;;;;;;;;;5308309;28;20016;-69
2022/03/25 03:03:38;;;;;;;45.35;28.15;;;;;;;;;;5308366;28;20122;-68
2022/03/25 03:06:09;;;;;;;49.47;28.85;;;;;;;;;;5307342;28;20020;-69
2022/03/25 03:08:41;;;;;;;51.44;30.28;;;;;;;;;;5307792;28;20028;-69
2022/03/25 03:11:13;;;;;;;44.92;28.55;;;;;;;;;;5307517;28;20016;-70
2022/03/25 03:13:44;;;;;;;48.83;28.88;;;;;;;;;;5307947;28;20020;-70
2022/03/25 03:16:15;;;;;;;47.72;29.13;;;;;;;;;;5308703;28;20365;-70
2022/03/25 03:18:47;;;;;;;49.65;30.63;;;;;;;;;;5307288;28;20027;-69
2022/03/25 03:21:20;;;;;;;49.33;30.13;;;;;;;;;;5308390;28;20023;-69
2022/03/25 03:23:53;;;;;;;52.95;30.50;;;;;;;;;;5308038;28;20070;-69
2022/03/25 03:26:24;;;;;;;45.42;29.40;;;;;;;;;;5307763;28;20012;-69
2022/03/25 03:28:55;;;;;;;45.42;26.88;;;;;;;;;;5307738;28;20051;-68
2022/03/25 03:31:27;;;;;;;45.85;29.73;;;;;;;;;;5308210;28;20016;-69
2022/03/25 03:33:58;;;;;;;50.00;27.74;;;;;;;;;;5307015;28;20397;-69
2022/03/25 03:36:29;;;;;;;49.00;30.80;;;;;;;;;;5307835;28;20473;-69
2022/03/25 03:39:00;;;;;;;44.75;28.40;;;;;;;;;;5307435;28;20020;-69
2022/03/25 03:41:31;;;;;;;46.53;28.15;;;;;;;;;;5307903;28;20457;-69
2022/03/25 03:44:03;;;;;;;47.10;28.38;;;;;;;;;;5307709;28;20254;-69
2022/03/25 03:46:34;;;;;;;49.22;29.23;;;;;;;;;;5304310;28;20490;-70
2022/03/25 03:49:05;;;;;;;50.05;29.17;;;;;;;;;;5304593;28;20028;-69
2022/03/25 03:51:36;;;;;;;50.04;29.54;;;;;;;;;;5304531;28;20027;-69
2022/03/25 03:54:07;;;;;;;47.35;30.10;;;;;;;;;;5303671;28;20240;-69
2022/03/25 03:56:39;;;;;;;49.58;29.74;;;;;;;;;;5304338;28;20489;-69
2022/03/25 03:59:10;;;;;;;48.88;29.92;;;;;;;;;;5304783;28;20020;-70
2022/03/25 04:01:41;;;;;;;48.46;28.58;;;;;;;;;;5303908;28;20046;-68
2022/03/25 04:04:12;;;;;;;48.02;28.64;;;;;;;;;;5304302;28;20085;-69
2022/03/25 04:06:44;;;;;;;49.50;30.18;;;;;;;;;;5304410;28;20039;-69
2022/03/25 04:09:15;;;;;;;50.20;28.45;;;;;;;;;;5303310;28;20024;-69
2022/03/25 04:11:46;;;;;;;53.94;29.88;;;;;;;;;;5304100;28;20012;-70
2022/03/25 04:14:17;;;;;;;49.04;29.26;;;;;;;;;;5303510;28;20036;-68
2022/03/25 04:16:48;;;;;;;47.88;29.64;;;;;;;;;;5303682;28;20111;-68
2022/03/25 04:19:19;;;;;;;52.30;31.24;;;;;;;;;;5304442;28;20050;-68
2022/03/25 04:21:51;;;;;;;49.40;30.60;;;;;;;;;;5302777;28;20035;-68
2022/03/25 04:24:22;;;;;;;52.10;31.70;;;;;;;;;;5304166;28;20020;-70
2022/03/25 04:26:53;;;;;;;54.28;29.84;;;;;;;;;;5303534;28;20364;-69
2022/03/25 04:29:24;;;;;;;49.45;29.08;;;;;;;;;;5303275;28;20467;-68
2022/03/25 04:31:55;;;;;;;50.80;30.27;;;;;;;;;;5303584;28;20382;-69
2022/03/25 04:34:26;;;;;;;53.00;30.20;;;;;;;;;;5304014;28;20035;-69
2022/03/25 04:36:58;;;;;;;54.88;30.92;;;;;;;;;;5302476;28;20391;-69
2022/03/25 04:39:29;;;;;;;52.45;30.80;;;;;;;;;;5303953;28;20024;-69
2022/03/25 04:42:00;;;;;;;52.60;30.98;;;;;;;;;;5303585;28;20024;-70
2022/03/25 04:44:31;;;;;;;50.92;30.82;;;;;;;;;;5302797;28;20097;-69
2022/03/25 04:47:03;;;;;;;60.58;32.28;;;;;;;;;;5303558;28;20016;-69
2022/03/25 04:49:34;;;;;;;52.58;31.23;;;;;;;;;;5302848;28;20042;-68
2022/03/25 04:52:05;;;;;;;53.28;31.60;;;;;;;;;;5303353;28;20103;-69
2022/03/25 04:54:36;;;;;;;52.53;29.92;;;;;;;;;;5303477;28;20467;-69
2022/03/25 04:57:08;;;;;;;52.40;30.20;;;;;;;;;;5302212;28;20020;-68
2022/03/25 04:59:39;;;;;;;54.58;30.23;;;;;;;;;;5303326;28;20012;-69
2022/03/25 05:02:10;;;;;;;51.54;30.20;;;;;;;;;;5303240;28;20020;-69
2022/03/25 05:04:41;;;;;;;51.90;31.60;;;;;;;;;;5302510;28;20097;-69
2022/03/25 05:07:16;;;;;;;50.80;31.15;;;;;;;;;;5303022;28;20045;-69
2022/03/25 05:09:47;;;;;;;52.30;31.05;;;;;;;;;;5302595;28;20032;-68
2022/03/25 05:12:18;;;;;;;56.42;31.50;;;;;;;;;;5302760;28;20012;-68
2022/03/25 05:14:50;;;;;;;50.38;31.35;;;;;;;;;;5302276;28;20056;-68
2022/03/25 05:17:21;;;;;;;55.82;33.10;;;;;;;;;;5303266;28;20024;-69
2022/03/25 05:19:54;;;;;;;53.58;30.67;;;;;;;;;;5283217;28;20020;-68
2022/03/25 05:22:26;;;;;;;60.97;32.92;;;;;;;;;;5302703;28;20020;-69
2022/03/25 05:24:57;;;;;;;55.63;33.13;;;;;;;;;;5301696;28;20474;-69
2022/03/25 05:27:28;;;;;;;56.72;33.35;;;;;;;;;;5302871;28;20024;-69
2022/03/25 05:30:00;;;;;;;52.88;30.95;;;;;;;;;;5302357;28;20044;-69
2022/03/25 05:32:31;;;;;;;54.32;30.66;;;;;;;;;;5301728;28;20051;-69
2022/03/25 05:35:02;;;;;;;56.48;32.52;;;;;;;;;;5302110;28;20016;-70
2022/03/25 05:37:35;;;;;;;62.30;31.52;;;;;;;;;;5301958;28;20023;-69
2022/03/25 05:40:08;;;;;;;61.50;33.08;;;;;;;;;;5301699;28;20030;-69
2022/03/25 05:42:39;;;;;;;64.03;33.20;;;;;;;;;;5302349;28;20024;-69
2022/03/25 05:45:10;;;;;;;56.38;32.28;;;;;;;;;;5302295;28;20050;-70
2022/03/25 05:47:42;;;;;;;60.60;30.90;;;;;;;;;;5301769;28;20039;-69
2022/03/25 05:50:13;;;;;;;59.05;31.48;;;;;;;;;;5302349;28;20047;-69
2022/03/25 05:52:44;;;;;;;63.75;32.75;;;;;;;;;;5301216;28;20016;-69
2022/03/25 05:55:19;;;;;;;67.90;33.60;;;;;;;;;;5302646;28;20020;-70
2022/03/25 05:57:50;;;;;;;66.78;33.10;;;;;;;;;;5301848;28;20097;-69
2022/03/25 06:00:23;;;;;;;58.75;32.75;;;;;;;;;;5302211;28;20020;-68
2022/03/25 06:02:54;;;;;;;66.80;31.92;;;;;;;;;;5302247;28;20043;-71
2022/03/25 06:05:25;;;;;;;68.43;32.70;;;;;;;;;;5302643;28;20052;-69
2022/03/25 06:07:57;;;;;;;61.08;33.70;;;;;;;;;;5300912;28;20028;-69
2022/03/25 06:10:28;;;;;;;65.38;32.72;;;;;;;;;;5301453;28;20081;-69
2022/03/25 06:12:59;;;;;;;65.10;33.60;;;;;;;;;;5301557;28;20012;-68
2022/03/25 06:15:31;;;;;;;64.88;32.20;;;;;;;;;;5300813;28;20048;-69
2022/03/25 06:18:02;;;;;;;57.03;31.13;;;;;;;;;;5301792;28;20426;-69
2022/03/25 06:20:33;;;;;;;53.50;30.27;;;;;;;;;;5301687;28;20012;-68
2022/03/25 06:23:05;;;;;;;56.78;31.73;;;;;;;;;;5301311;28;20126;-69
2022/03/25 06:25:36;;;;;;;58.80;32.10;;;;;;;;;;5301940;28;20061;-68
2022/03/25 06:28:07;;;;;;;51.35;30.05;;;;;;;;;;5300957;28;20391;-68
2022/03/25 06:30:39;;;;;;;59.95;32.15;;;;;;;;;;5301763;28;20278;-68
2022/03/25 06:33:10;;;;;;;54.60;33.30;;;;;;;;;;5301466;28;20020;-69
2022/03/25 06:35:41;;;;;;;51.17;32.03;;;;;;;;;;5300838;28;20051;-68
2022/03/25 06:38:13;;;;;;;50.54;31.66;;;;;;;;;;5301526;28;20355;-68
2022/03/25 06:40:44;;;;;;;50.55;33.05;;;;;;;;;;5301322;28;20505;-70
2022/03/25 06:43:15;;;;;;;48.40;32.22;;;;;;;;;;5301018;28;20049;-69
2022/03/25 06:45:46;;;;;;;55.53;34.17;;;;;;;;;;5300995;28;20266;-69
2022/03/25 06:48:18;;;;;;;59.40;36.90;;;;;;;;;;5301644;28;20067;-69
2022/03/25 06:50:49;;;;;;;56.88;35.53;;;;;;;;;;5300357;28;20427;-69
2022/03/25 06:53:20;;;;;;;56.55;36.40;;;;;;;;;;5301567;28;20772;-69
2022/03/25 06:55:51;;;;;;;56.55;35.75;;;;;;;;;;5301170;28;20028;-69
2022/03/25 06:58:23;;;;;;;56.80;36.80;;;;;;;;;;5301465;28;20488;-69
2022/03/25 07:00:54;;;;;;;57.90;39.75;;;;;;;;;;5300984;28;20471;-69
2022/03/25 07:03:25;;;;;;;57.80;38.15;;;;;;;;;;5301019;28;20024;-69
2022/03/25 07:06:00;;;;;;;57.65;38.63;;;;;;;;;;5300945;28;20124;-70
2022/03/25 07:08:31;;;;;;;55.03;39.30;;;;;;;;;;5301625;28;20056;-69
2022/03/25 07:11:04;;;;;;;58.97;40.20;;;;;;;;;;5300534;28;20052;-69
2022/03/25 07:13:35;;;;;;;60.60;40.97;;;;;;;;;;5301121;28;20020;-69
2022/03/25 07:16:07;;;;;;;58.00;42.25;;;;;;;;;;5282889;28;20039;-69
2022/03/25 07:18:38;;;;;;;60.10;40.80;;;;;;;;;;5300427;28;20062;-69
2022/03/25 07:21:09;;;;;;;57.78;42.65;;;;;;;;;;5302717;28;20534;-69
2022/03/25 07:23:40;;;;;;;61.20;42.13;;;;;;;;;;5305411;28;20311;-69
2022/03/25 07:26:11;;;;;;;57.83;42.55;;;;;;;;;;5304290;28;20278;-69
2022/03/25 07:28:43;;;;;;;59.83;42.30;;;;;;;;;;5305150;28;20379;-69
2022/03/25 07:31:14;;;;;;;62.15;42.88;;;;;;;;;;5304031;28;20024;-68
2022/03/25 07:33:45;;;;;;;62.25;45.55;;;;;;;;;;5304700;28;20043;-69
2022/03/25 07:36:17;;;;;;;62.40;42.13;;;;;;;;;;5305489;28;20258;-68
2022/03/25 07:38:48;;;;;;;66.15;45.10;;;;;;;;;;5304107;28;20023;-70
2022/03/25 07:41:19;;;;;;;61.60;43.60;;;;;;;;;;5305662;28;20035;-68
2022/03/25 07:43:53;;;;;;;64.33;43.93;;;;;;;;;;5304521;28;20015;-69
2022/03/25 07:46:24;;;;;;;64.95;43.40;;;;;;;;;;5304332;28;20312;-67
2022/03/25 07:48:56;;;;;;;56.27;43.47;;;;;;;;;;5304601;28;20476;-68
2022/03/25 07:51:27;;;;;;;60.25;44.33;;;;;;;;;;5304960;28;20368;-68
2022/03/25 07:53:58;;;;;;;60.93;42.60;;;;;;;;;;5303963;28;20705;-69
2022/03/25 07:56:29;;;;;;;60.13;44.22;;;;;;;;;;5304294;28;20293;-69
2022/03/25 07:59:00;;;;;;;61.88;45.03;;;;;;;;;;5304501;28;20107;-69
2022/03/25 08:01:31;;;;;;;62.05;43.92;;;;;;;;;;5303765;28;20024;-69
2022/03/25 08:04:03;;;;;;;61.78;46.78;;;;;;;;;;5301722;28;21334;-70
2022/03/25 08:06:34;;;;;;;58.47;45.08;;;;;;;;;;5302030;28;20280;-69
2022/03/25 08:09:05;;;;;;;63.75;46.47;;;;;;;;;;5303550;28;20028;-70
2022/03/25 08:11:36;;;;;;;64.13;48.20;;;;;;;;;;5304348;28;20052;-69
2022/03/25 08:14:07;;;;;;;62.85;45.63;;;;;;;;;;5303512;28;20294;-69
2022/03/25 08:16:38;;;;;;;57.67;45.00;;;;;;;;;;5304107;28;20286;-69
2022/03/25 08:19:11;;;;;;;66.90;45.80;;;;;;;;;;5304088;28;20285;-69
2022/03/25 08:21:42;;;;;;;61.25;44.55;;;;;;;;;;5303044;28;20265;-69
2022/03/25 08:29:55;;;;;;;60.22;42.25;;;;;;;;;;5303574;28;20123;-69
2022/03/25 08:32:26;;;;;;;58.55;42.33;;;;;;;;;;5303648;28;20016;-69
2022/03/25 08:34:57;;;;;;;59.38;42.33;;;;;;;;;;5302884;28;20022;-69
2022/03/25 08:37:28;;;;;;;56.90;42.47;;;;;;;;;;5304221;28;20065;-69
2022/03/25 08:40:00;;;;;;;59.30;43.40;;;;;;;;;;5303488;28;20280;-69
2022/03/25 08:42:31;;;;;;;62.42;42.75;;;;;;;;;;5302885;28;20254;-69
2022/03/25 08:45:02;;;;;;;60.30;42.53;;;;;;;;;;5303908;28;20385;-69
2022/03/25 08:47:34;;;;;;;61.35;42.88;;;;;;;;;;5303740;28;20289;-69
2022/03/25 08:50:05;;;;;;;57.90;42.28;;;;;;;;;;5302649;28;20085;-69
2022/03/25 08:52:36;;;;;;;58.92;41.47;;;;;;;;;;5303330;28;20024;-69
2022/03/25 08:55:10;;;;;;;61.65;42.03;;;;;;;;;;5303419;28;20023;-70
2022/03/25 08:57:41;;;;;;;56.47;42.85;;;;;;;;;;5302546;28;20043;-69
2022/03/25 09:00:14;;;;;;;58.13;39.15;;;;;;;;;;5303574;28;20092;-70
2022/03/25 09:02:45;;;;;;;59.65;40.92;;;;;;;;;;5302410;28;20032;-68
2022/03/25 09:05:17;;;;;;;57.30;39.85;;;;;;;;;;5303437;28;20047;-69
2022/03/25 09:07:48;;;;;;;62.80;41.83;;;;;;;;;;5303240;28;20234;-69
2022/03/25 09:10:19;;;;;;;62.17;41.67;;;;;;;;;;5302740;28;20462;-69
2022/03/25 09:12:50;;;;;;;55.20;38.10;;;;;;;;;;5302722;28;20277;-69
2022/03/25 09:15:24;;;;;;;56.80;37.05;;;;;;;;;;5303341;28;20077;-69
2022/03/25 09:17:56;;;;;;;58.33;42.28;;;;;;;;;;5301824;28;20396;-69
2022/03/25 09:20:27;;;;;;;54.25;38.90;;;;;;;;;;5303485;28;20367;-68
2022/03/25 09:22:58;;;;;;;62.22;39.60;;;;;;;;;;5302899;28;20416;-70
2022/03/25 09:25:30;;;;;;;60.70;40.90;;;;;;;;;;5302166;28;20612;-69
2022/03/25 09:28:01;;;;;;;62.13;41.42;;;;;;;;;;5302702;28;20745;-69
2022/03/25 09:30:33;;;;;;;64.47;42.33;;;;;;;;;;5302996;28;20036;-69
2022/03/25 09:33:06;;;;;;;54.75;36.72;;;;;;;;;;5301970;28;20036;-68
2022/03/25 09:35:38;;;;;;;54.38;36.47;;;;;;;;;;5302908;28;20024;-69
2022/03/25 09:38:09;;;;;;;53.58;34.00;;;;;;;;;;5301883;28;20427;-68
2022/03/25 09:40:43;;;;;;;51.87;33.10;;;;;;;;;;5302546;28;20498;-69
2022/03/25 09:43:17;;;;;;;52.95;36.55;;;;;;;;;;5302435;28;20272;-69
2022/03/25 09:45:48;;;;;;;51.28;35.80;;;;;;;;;;5300613;28;20027;-69
2022/03/25 09:48:20;;;;;;;49.83;33.47;;;;;;;;;;5302797;28;20028;-69
2022/03/25 09:50:51;;;;;;;44.75;33.50;;;;;;;;;;5302008;28;20027;-70
2022/03/25 09:53:26;;;;;;;50.13;34.60;;;;;;;;;;5302207;28;20028;-69
2022/03/25 09:55:58;;;;;;;45.47;31.55;;;;;;;;;;5302327;28;20767;-69
2022/03/25 09:58:29;;;;;;;46.13;31.05;;;;;;;;;;5302478;28;20020;-69
2022/03/25 10:01:00;;;;;;;43.25;29.40;;;;;;;;;;5300693;28;20059;-68
2022/03/25 10:03:33;;;;;;;37.80;29.27;;;;;;;;;;5302015;28;20470;-68
2022/03/25 10:06:09;;;;;;;37.72;28.42;;;;;;;;;;5301296;28;20270;-69
2022/03/25 10:08:42;;;;;;;44.22;28.77;;;;;;;;;;5302090;28;20096;-68
2022/03/25 10:11:19;;;;;;;40.63;28.08;;;;;;;;;;5302273;28;20040;-68
2022/03/25 10:14:09;;;;;;;47.80;28.48;;;;;;;;;;5300879;28;20027;-69
2022/03/25 10:16:41;;;;;;;37.53;26.67;;;;;;;;;;5302020;28;20300;-68
2022/03/25 10:19:16;;;;;;;41.58;26.88;;;;;;;;;;5302237;28;20020;-69
2022/03/25 10:22:00;;;;;;;42.22;26.60;;;;;;;;;;5300928;28;20467;-69
2022/03/25 10:24:36;;;;;;;39.10;27.00;;;;;;;;;;5301514;28;20123;-68
2022/03/25 10:27:07;;;;;;;38.20;24.45;;;;;;;;;;5301205;28;20487;-69
2022/03/25 10:29:38;;;;;;;41.00;26.75;;;;;;;;;;5301936;28;20055;-69
2022/03/25 10:32:11;;;;;;;40.15;27.48;;;;;;;;;;5301868;28;20022;-69
2022/03/25 10:34:42;;;;;;;41.55;26.38;;;;;;;;;;5301087;28;20463;-69
2022/03/25 10:37:14;;;;;;;40.30;26.52;;;;;;;;;;5301845;28;20019;-69
2022/03/25 10:39:54;;;;;;;43.83;25.73;;;;;;;;;;5301670;28;20099;-69
2022/03/25 10:42:25;;;;;;;36.38;24.33;;;;;;;;;;5301102;28;20024;-68
2022/03/25 10:44:56;;;;;;;37.67;24.77;;;;;;;;;;5301502;28;20454;-68
2022/03/25 10:47:28;;;;;;;39.90;25.00;;;;;;;;;;5301804;28;20728;-68
2022/03/25 10:50:12;;;;;;;39.28;25.25;;;;;;;;;;5300623;28;20293;-68
2022/03/25 10:52:44;;;;;;;38.88;23.15;;;;;;;;;;5301699;28;20359;-68
2022/03/25 10:55:16;;;;;;;38.05;24.05;;;;;;;;;;5299300;28;20027;-69
2022/03/25 10:57:55;;;;;;;32.38;22.63;;;;;;;;;;5305164;28;20099;-69
2022/03/25 11:00:26;;;;;;;34.88;20.98;;;;;;;;;;5306021;28;20516;-68
2022/03/25 11:02:58;;;;;;;39.65;23.90;;;;;;;;;;5304714;28;20024;-68
2022/03/25 11:05:29;;;;;;;42.13;26.58;;;;;;;;;;5305926;28;20076;-69
2022/03/25 11:08:00;;;;;;;40.67;25.35;;;;;;;;;;5305253;28;20031;-68
2022/03/25 11:10:32;;;;;;;39.63;24.20;;;;;;;;;;5304590;28;20028;-69
2022/03/25 11:13:04;;;;;;;39.97;25.55;;;;;;;;;;5305772;28;20020;-69
2022/03/25 11:15:36;;;;;;;32.00;24.02;;;;;;;;;;5305416;28;20051;-69
2022/03/25 11:18:08;;;;;;;41.40;25.70;;;;;;;;;;5304649;28;20471;-70
2022/03/25 11:20:40;;;;;;;39.03;25.60;;;;;;;;;;5304437;28;20016;-69
2022/03/25 11:23:15;;;;;;;38.20;25.25;;;;;;;;;;5304583;28;20024;-69
2022/03/25 11:25:50;;;;;;;37.45;24.70;;;;;;;;;;5304918;28;20012;-70
2022/03/25 11:28:28;;;;;;;44.00;26.15;;;;;;;;;;5305519;28;20459;-69
2022/03/25 11:31:04;;;;;;;38.55;24.85;;;;;;;;;;5304203;28;20063;-69
2022/03/25 11:33:54;;;;;;;34.15;23.42;;;;;;;;;;5305505;28;20035;-69
2022/03/25 11:36:25;;;;;;;37.92;24.58;;;;;;;;;;5305578;28;20058;-69
2022/03/25 11:39:15;;;;;;;33.65;24.08;;;;;;;;;;5304228;28;20095;-69
2022/03/25 11:41:47;;;;;;;38.50;23.27;;;;;;;;;;5304893;28;20148;-69
2022/03/25 11:44:20;;;;;;;36.70;25.48;;;;;;;;;;5304806;28;20016;-69
2022/03/25 11:47:00;;;;;;;43.95;27.17;;;;;;;;;;5304616;28;20016;-69
2022/03/25 11:49:33;;;;;;;39.63;27.58;;;;;;;;;;5305350;28;20027;-69
2022/03/25 11:52:16;;;;;;;46.92;27.73;;;;;;;;;;5303732;28;20024;-69
2022/03/25 11:54:54;;;;;;;41.80;27.58;;;;;;;;;;5304642;28;20066;-69
2022/03/25 11:57:32;;;;;;;41.33;27.05;;;;;;;;;;5305233;28;20065;-69
2022/03/25 12:00:06;;;;;;;44.33;27.05;;;;;;;;;;5303808;28;20401;-69
2022/03/25 12:02:38;;;;;;;47.25;29.20;;;;;;;;;;5305045;28;20119;-69
2022/03/25 12:05:25;;;;;;;47.05;29.45;;;;;;;;;;5304559;28;20024;-69
2022/03/25 12:08:14;;;;;;;40.10;27.55;;;;;;;;;;5303296;28;20016;-69
2022/03/25 12:10:46;;;;;;;51.03;28.20;;;;;;;;;;5303955;28;20031;-69
2022/03/25 12:13:17;;;;;;;44.83;28.35;;;;;;;;;;5303477;28;20012;-68
2022/03/25 12:15:49;;;;;;;41.97;27.60;;;;;;;;;;5303716;28;20040;-69
2022/03/25 12:18:39;;;;;;;43.42;28.95;;;;;;;;;;5304326;28;20186;-70
2022/03/25 12:21:33;;;;;;;44.45;29.50;;;;;;;;;;5303075;28;20351;-69
2022/03/25 12:24:04;;;;;;;44.22;29.90;;;;;;;;;;5303876;28;20031;-69
2022/03/25 12:26:36;;;;;;;44.92;30.40;;;;;;;;;;5303478;28;20153;-68
2022/03/25 12:29:08;;;;;;;44.25;30.08;;;;;;;;;;5304085;28;20118;-68
2022/03/25 12:31:39;;;;;;;44.70;30.70;;;;;;;;;;5303980;28;20020;-68
2022/03/25 12:34:10;;;;;;;46.63;29.75;;;;;;;;;;5303490;28;20028;-67
2022/03/25 12:36:43;;;;;;;41.72;29.73;;;;;;;;;;5304064;28;20027;-68
2022/03/25 12:39:14;;;;;;;40.95;28.77;;;;;;;;;;5303281;28;20266;-69
2022/03/25 12:41:51;;;;;;;44.38;29.33;;;;;;;;;;5302587;28;20012;-69
2022/03/25 12:44:27;;;;;;;45.00;30.35;;;;;;;;;;5303977;28;20048;-69
2022/03/25 12:47:02;;;;;;;46.70;29.63;;;;;;;;;;5303209;28;20099;-68
2022/03/25 12:49:33;;;;;;;47.97;30.65;;;;;;;;;;5302615;28;20500;-68
2022/03/25 12:52:05;;;;;;;49.45;34.10;;;;;;;;;;5302817;28;20059;-69
2022/03/25 12:54:37;;;;;;;47.90;32.05;;;;;;;;;;5302590;28;20035;-69
2022/03/25 12:57:08;;;;;;;49.47;31.58;;;;;;;;;;5303466;28;20020;-69
2022/03/25 12:59:39;;;;;;;51.72;34.08;;;;;;;;;;5303545;28;20103;-68
2022/03/25 13:02:10;;;;;;;49.57;34.37;;;;;;;;;;5302533;28;20266;-69
2022/03/25 13:04:42;;;;;;;47.88;30.75;;;;;;;;;;5300044;28;20319;-69
2022/03/25 13:07:14;;;;;;;44.58;29.98;;;;;;;;;;5300449;28;20526;-68
2022/03/25 13:09:51;;;;;;;44.78;31.38;;;;;;;;;;5301187;28;20301;-70
2022/03/25 13:12:28;;;;;;;48.88;32.05;;;;;;;;;;5303466;28;20434;-69
2022/03/25 13:14:59;;;;;;;52.03;32.17;;;;;;;;;;5302372;28;20086;-69
2022/03/25 13:17:47;;;;;;;50.45;32.50;;;;;;;;;;5301601;28;20052;-68
2022/03/25 13:20:19;;;;;;;51.88;33.75;;;;;;;;;;5302480;28;20039;-69
2022/03/25 13:23:01;;;;;;;49.05;33.28;;;;;;;;;;5301747;28;20042;-69
2022/03/25 13:25:38;;;;;;;51.88;31.85;;;;;;;;;;5302652;28;20019;-69
2022/03/25 13:28:16;;;;;;;44.60;31.20;;;;;;;;;;5302530;28;20286;-69
2022/03/25 13:30:48;;;;;;;45.58;31.92;;;;;;;;;;5301093;28;20024;-69
2022/03/25 13:33:24;;;;;;;45.58;31.27;;;;;;;;;;5302707;28;20094;-68
2022/03/25 13:36:04;;;;;;;48.92;32.88;;;;;;;;;;5301265;28;20016;-68
2022/03/25 13:38:38;;;;;;;49.50;32.63;;;;;;;;;;5298670;28;20027;-66
2022/03/25 13:41:19;;;;;;;44.63;29.67;;;;;;;;;;5302065;28;20397;-68
2022/03/25 13:43:53;;;;;;;45.53;31.40;;;;;;;;;;5301410;28;20016;-69
2022/03/25 13:46:27;;;;;;;46.92;29.40;;;;;;;;;;5302577;28;20099;-69
2022/03/25 13:48:59;;;;;;;50.40;31.92;;;;;;;;;;5301805;28;20039;-67
2022/03/25 13:51:34;;;;;;;46.55;30.83;;;;;;;;;;5300923;28;20027;-68
2022/03/25 13:54:06;;;;;;;42.75;30.65;;;;;;;;;;5302131;28;20055;-68
2022/03/25 13:56:38;;;;;;;45.45;30.13;;;;;;;;;;5298861;28;20481;-68
2022/03/25 13:59:22;;;;;;;43.80;29.65;;;;;;;;;;5301068;28;20107;-68
2022/03/25 14:01:57;;;;;;;45.03;29.23;;;;;;;;;;5301493;28;20266;-69
2022/03/25 14:04:29;;;;;;;49.53;29.75;;;;;;;;;;5297991;28;20012;-68
2022/03/25 14:07:01;;;;;;;39.72;28.20;;;;;;;;;;5301059;28;20020;-68
2022/03/25 14:09:35;;;;;;;46.63;28.35;;;;;;;;;;5301228;28;20535;-68
2022/03/25 14:12:20;;;;;;;42.55;28.95;;;;;;;;;;5301426;28;20028;-68
2022/03/25 14:14:57;;;;;;;45.25;28.55;;;;;;;;;;5301058;28;20085;-68
2022/03/25 14:17:29;;;;;;;43.00;28.23;;;;;;;;;;5302317;28;20140;-69
2022/03/25 14:20:13;;;;;;;41.47;29.65;;;;;;;;;;5301163;28;20027;-69
2022/03/25 14:22:49;;;;;;;40.58;27.02;;;;;;;;;;5301836;28;20035;-69
2022/03/25 14:25:21;;;;;;;39.28;27.33;;;;;;;;;;5302216;28;20114;-69
2022/03/25 14:27:56;;;;;;;45.17;29.58;;;;;;;;;;5300666;28;20493;-69
2022/03/25 14:30:27;;;;;;;40.22;27.13;;;;;;;;;;5301605;28;20097;-69
2022/03/25 14:32:59;;;;;;;42.22;27.98;;;;;;;;;;5301269;28;20024;-69
2022/03/25 14:35:30;;;;;;;44.95;27.95;;;;;;;;;;5300940;28;20471;-69
2022/03/25 14:38:01;;;;;;;40.55;27.75;;;;;;;;;;5301630;28;20069;-69
2022/03/25 14:40:32;;;;;;;41.42;26.85;;;;;;;;;;5300666;28;20020;-68
2022/03/25 14:43:04;;;;;;;44.93;27.47;;;;;;;;;;5301463;28;20128;-69
2022/03/25 14:45:35;;;;;;;36.60;27.42;;;;;;;;;;5301756;28;20749;-68
2022/03/25 14:48:06;;;;;;;43.10;27.58;;;;;;;;;;5300909;28;20106;-69
2022/03/25 14:50:37;;;;;;;39.70;27.90;;;;;;;;;;5301460;28;20131;-69
2022/03/25 14:53:09;;;;;;;43.17;27.92;;;;;;;;;;5301495;28;20359;-69